createdAt,value
2019-03-19T00:00:52.314Z,21.80
2019-03-19T00:03:58.521Z,21.70
2019-03-19T00:07:04.652Z,21.70
2019-03-19T00:10:10.528Z,21.70
2019-03-19T00:13:18.020Z,21.70
2019-03-19T00:16:24.552Z,21.70
2019-03-19T00:19:30.252Z,21.70
2019-03-19T00:22:35.971Z,21.70
2019-03-19T00:25:41.659Z,21.60
2019-03-19T00:28:47.312Z,21.70
2019-03-19T00:31:52.919Z,21.60
2019-03-19T00:34:58.623Z,21.60
2019-03-19T00:38:04.339Z,21.60
2019-03-19T00:41:09.994Z,21.60
2019-03-19T00:44:15.783Z,21.60
2019-03-19T00:47:21.399Z,21.60
2019-03-19T00:50:27.035Z,21.60
2019-03-19T00:53:32.724Z,21.60
2019-03-19T00:56:38.356Z,21.50
2019-03-19T00:59:44.013Z,21.50
2019-03-19T01:02:49.644Z,21.50
2019-03-19T01:05:55.297Z,21.50
2019-03-19T01:09:00.976Z,21.50
2019-03-19T01:12:09.448Z,21.50
2019-03-19T01:15:15.172Z,21.50
2019-03-19T01:18:20.769Z,21.40
2019-03-19T01:21:26.427Z,21.40
2019-03-19T01:24:32.100Z,21.40
2019-03-19T01:27:37.752Z,21.40
2019-03-19T01:30:43.383Z,21.40
2019-03-19T01:33:49.038Z,21.40
2019-03-19T01:36:54.712Z,21.30
2019-03-19T01:40:00.440Z,21.30
2019-03-19T01:43:07.123Z,21.30
2019-03-19T01:46:12.888Z,21.30
2019-03-19T01:49:18.636Z,21.30
2019-03-19T01:52:24.347Z,21.30
2019-03-19T01:55:30.056Z,21.30
2019-03-19T01:58:35.819Z,21.30
2019-03-19T02:01:41.581Z,21.30
2019-03-19T02:04:47.226Z,21.30
2019-03-19T02:07:52.892Z,21.20
2019-03-19T02:10:58.518Z,21.20
2019-03-19T02:14:04.193Z,21.20
2019-03-19T02:17:12.707Z,21.20
2019-03-19T02:20:18.278Z,21.20
2019-03-19T02:23:23.990Z,21.20
2019-03-19T02:26:29.660Z,21.20
2019-03-19T02:29:35.352Z,21.20
2019-03-19T02:32:42.783Z,21.10
2019-03-19T02:35:48.705Z,21.10
2019-03-19T02:38:55.321Z,21.10
2019-03-19T02:42:01.001Z,21.10
2019-03-19T02:45:07.380Z,21.10
2019-03-19T02:48:13.023Z,21.10
2019-03-19T02:51:18.716Z,21.10
2019-03-19T02:54:24.360Z,21.10
2019-03-19T02:57:30.061Z,21.00
2019-03-19T03:00:35.743Z,21.00
2019-03-19T03:03:41.409Z,21.00
2019-03-19T03:06:47.107Z,21.00
2019-03-19T03:09:52.732Z,21.00
2019-03-19T03:12:59.488Z,21.00
2019-03-19T03:16:07.121Z,20.90
2019-03-19T03:19:12.873Z,20.90
2019-03-19T03:22:19.617Z,20.90
2019-03-19T03:25:25.323Z,20.90
2019-03-19T03:28:31.052Z,20.90
2019-03-19T03:31:36.753Z,20.90
2019-03-19T03:34:43.377Z,20.90
2019-03-19T03:37:50.141Z,20.90
2019-03-19T03:40:55.844Z,20.80
2019-03-19T03:44:01.467Z,20.80
2019-03-19T03:47:07.161Z,20.80
2019-03-19T03:50:13.072Z,20.80
2019-03-19T03:53:18.767Z,20.80
2019-03-19T03:56:24.421Z,20.80
2019-03-19T03:59:30.155Z,20.80
2019-03-19T04:02:35.823Z,20.80
2019-03-19T04:05:41.612Z,20.80
2019-03-19T04:08:47.198Z,20.80
2019-03-19T04:11:52.889Z,20.70
2019-03-19T04:14:58.481Z,20.70
2019-03-19T04:18:04.398Z,20.70
2019-03-19T04:21:11.721Z,20.70
2019-03-19T04:24:17.407Z,20.70
2019-03-19T04:27:23.145Z,20.70
2019-03-19T04:30:28.813Z,20.70
2019-03-19T04:33:34.473Z,20.60
2019-03-19T04:36:40.124Z,20.60
2019-03-19T04:39:45.767Z,20.60
2019-03-19T04:42:51.421Z,20.60
2019-03-19T04:45:57.088Z,20.50
2019-03-19T04:49:03.932Z,20.50
2019-03-19T04:52:09.611Z,20.50
2019-03-19T04:55:15.405Z,20.50
2019-03-19T04:58:22.119Z,20.50
2019-03-19T05:01:27.771Z,20.50
2019-03-19T05:04:33.447Z,20.40
2019-03-19T05:07:39.104Z,20.40
2019-03-19T05:10:44.735Z,20.40
2019-03-19T05:13:50.411Z,20.40
2019-03-19T05:16:56.099Z,20.40
2019-03-19T05:20:01.716Z,20.40
2019-03-19T05:23:07.451Z,20.40
2019-03-19T05:26:13.104Z,20.30
2019-03-19T05:29:18.782Z,20.30
2019-03-19T05:32:24.459Z,20.40
2019-03-19T05:35:30.060Z,20.40
2019-03-19T05:38:35.736Z,20.40
2019-03-19T05:41:41.383Z,20.50
2019-03-19T05:44:47.043Z,20.50
2019-03-19T05:47:52.715Z,20.50
2019-03-19T05:50:58.320Z,20.60
2019-03-19T05:54:03.995Z,20.60
2019-03-19T05:57:09.664Z,20.60
2019-03-19T06:00:15.582Z,20.70
2019-03-19T06:03:21.263Z,20.70
2019-03-19T06:06:26.912Z,20.80
2019-03-19T06:09:33.576Z,20.80
2019-03-19T06:12:39.255Z,20.90
2019-03-19T06:15:45.228Z,20.90
2019-03-19T06:18:51.869Z,20.90
2019-03-19T06:21:57.628Z,21.00
2019-03-19T06:25:03.290Z,21.00
2019-03-19T06:28:09.079Z,21.00
2019-03-19T06:31:14.671Z,21.10
2019-03-19T06:34:20.400Z,21.10
2019-03-19T06:37:27.804Z,21.00
2019-03-19T06:40:33.499Z,21.10
2019-03-19T06:43:39.163Z,21.10
2019-03-19T06:46:44.820Z,21.10
2019-03-19T06:49:50.460Z,21.20
2019-03-19T06:52:57.946Z,21.20
2019-03-19T06:56:03.595Z,21.20
2019-03-19T06:59:09.274Z,21.20
2019-03-19T07:02:14.903Z,21.30
2019-03-19T07:05:21.252Z,21.30
2019-03-19T07:08:26.944Z,21.30
2019-03-19T07:11:32.594Z,21.30
2019-03-19T07:14:38.276Z,21.30
2019-03-19T07:17:57.532Z,21.40
2019-03-19T07:21:03.247Z,21.40
2019-03-19T07:24:10.160Z,21.30
2019-03-19T07:27:15.775Z,21.30
2019-03-19T07:30:21.679Z,21.30
2019-03-19T07:33:27.343Z,21.30
2019-03-19T07:36:32.942Z,21.20
2019-03-19T07:39:38.535Z,21.30
2019-03-19T07:42:44.681Z,21.30
2019-03-19T07:45:52.036Z,21.30
2019-03-19T07:48:57.561Z,21.30
2019-03-19T07:52:03.271Z,21.30
2019-03-19T07:55:11.435Z,21.40
2019-03-19T07:58:17.021Z,21.40
2019-03-19T08:01:24.598Z,21.30
2019-03-19T08:04:31.791Z,21.30
2019-03-19T08:07:38.387Z,21.20
2019-03-19T08:10:44.059Z,21.00
2019-03-19T08:13:49.704Z,21.00
2019-03-19T08:16:55.469Z,21.00
2019-03-19T08:20:01.099Z,21.00
2019-03-19T08:23:09.034Z,21.00
2019-03-19T08:26:14.164Z,21.00
2019-03-19T08:29:19.812Z,21.00
2019-03-19T08:32:25.467Z,21.10
2019-03-19T08:35:32.043Z,21.10
2019-03-19T08:38:37.801Z,21.20
2019-03-19T08:41:43.684Z,21.20
2019-03-19T08:44:49.285Z,21.20
2019-03-19T08:47:54.951Z,21.20
2019-03-19T08:51:00.715Z,21.30
2019-03-19T08:54:25.736Z,21.30
2019-03-19T08:57:31.459Z,21.30
2019-03-19T09:00:37.788Z,21.30
2019-03-19T09:03:43.652Z,21.30
2019-03-19T09:06:49.426Z,21.40
2019-03-19T09:09:56.878Z,21.40
2019-03-19T09:13:04.416Z,21.40
2019-03-19T09:16:10.061Z,21.40
2019-03-19T09:19:15.743Z,21.40
2019-03-19T09:22:21.372Z,21.40
2019-03-19T09:25:27.159Z,21.40
2019-03-19T09:28:32.876Z,21.50
2019-03-19T09:31:39.540Z,21.50
2019-03-19T09:34:45.247Z,21.60
2019-03-19T09:37:58.400Z,21.60
2019-03-19T09:40:58.391Z,21.60
2019-03-19T09:44:04.212Z,21.60
2019-03-19T09:47:10.976Z,21.60
2019-03-19T09:50:17.374Z,21.60
2019-03-19T09:53:23.101Z,21.70
2019-03-19T09:56:28.807Z,21.70
2019-03-19T09:59:34.572Z,21.70
2019-03-19T10:02:41.319Z,21.70
2019-03-19T10:05:46.994Z,21.70
2019-03-19T10:08:52.712Z,21.70
2019-03-19T10:11:58.405Z,21.70
2019-03-19T10:15:04.160Z,21.70
2019-03-19T10:18:09.884Z,21.70
2019-03-19T10:21:15.560Z,21.70
2019-03-19T10:24:22.408Z,21.80
2019-03-19T10:27:29.199Z,21.80
2019-03-19T10:30:35.159Z,21.80
2019-03-19T10:33:40.888Z,21.80
2019-03-19T10:36:46.698Z,21.80
2019-03-19T10:39:52.467Z,21.90
2019-03-19T10:42:58.174Z,21.80
2019-03-19T10:46:03.863Z,21.80
2019-03-19T10:49:09.559Z,21.80
2019-03-19T10:52:15.248Z,21.90
2019-03-19T10:55:22.111Z,21.80
2019-03-19T10:58:29.715Z,21.80
2019-03-19T11:01:35.416Z,21.80
2019-03-19T11:04:42.148Z,21.90
2019-03-19T11:07:49.508Z,21.80
2019-03-19T11:10:56.296Z,21.90
2019-03-19T11:14:01.974Z,21.90
2019-03-19T11:17:07.612Z,21.90
2019-03-19T11:20:14.992Z,21.90
2019-03-19T11:23:22.400Z,21.90
2019-03-19T11:26:28.170Z,21.90
2019-03-19T11:29:35.520Z,21.90
2019-03-19T11:32:42.320Z,21.90
2019-03-19T11:35:48.172Z,22.00
2019-03-19T11:38:53.851Z,22.00
2019-03-19T11:41:59.603Z,22.00
2019-03-19T11:45:06.056Z,22.00
2019-03-19T11:48:11.836Z,22.00
2019-03-19T11:51:18.419Z,22.00
2019-03-19T11:54:24.164Z,22.00
2019-03-19T11:57:29.931Z,22.00
2019-03-19T12:00:43.153Z,22.00
2019-03-19T12:03:48.971Z,22.00
2019-03-19T12:06:54.710Z,22.00
2019-03-19T12:10:00.412Z,22.10
2019-03-19T12:13:09.102Z,22.10
2019-03-19T12:16:14.791Z,22.10
2019-03-19T12:19:20.416Z,22.10
2019-03-19T12:22:26.111Z,22.10
2019-03-19T12:25:31.740Z,22.10
2019-03-19T12:28:39.910Z,22.10
2019-03-19T12:31:44.808Z,22.10
2019-03-19T12:34:50.448Z,22.10
2019-03-19T12:37:57.160Z,22.10
2019-03-19T12:41:02.787Z,22.10
2019-03-19T12:44:08.432Z,22.10
2019-03-19T12:47:15.125Z,22.10
2019-03-19T12:50:20.736Z,22.10
2019-03-19T12:53:27.471Z,22.10
2019-03-19T12:56:33.176Z,22.10
2019-03-19T12:59:38.831Z,22.10
2019-03-19T13:02:44.636Z,22.10
2019-03-19T13:05:50.247Z,22.10
2019-03-19T13:08:56.974Z,22.10
2019-03-19T13:12:02.656Z,22.10
2019-03-19T13:15:09.791Z,22.10
2019-03-19T13:18:15.501Z,22.10
2019-03-19T13:21:21.276Z,22.10
2019-03-19T13:24:26.937Z,22.10
2019-03-19T13:27:32.729Z,22.10
2019-03-19T13:30:45.101Z,22.10
2019-03-19T13:33:45.806Z,22.20
2019-03-19T13:36:51.485Z,22.10
2019-03-19T13:39:57.120Z,22.20
2019-03-19T13:43:03.032Z,22.20
2019-03-19T13:46:08.861Z,22.20
2019-03-19T13:49:14.658Z,22.20
2019-03-19T13:52:20.581Z,22.20
2019-03-19T13:55:26.265Z,22.20
2019-03-19T13:58:32.007Z,22.20
2019-03-19T14:01:37.758Z,22.20
2019-03-19T14:04:43.487Z,22.20
2019-03-19T14:07:49.291Z,22.20
2019-03-19T14:10:54.998Z,22.20
2019-03-19T14:14:00.704Z,22.20
2019-03-19T14:17:06.703Z,22.20
2019-03-19T14:20:14.323Z,22.20
2019-03-19T14:23:20.111Z,22.20
2019-03-19T14:26:25.800Z,22.20
2019-03-19T14:29:31.484Z,22.20
2019-03-19T14:32:37.132Z,22.20
2019-03-19T14:35:43.117Z,22.20
2019-03-19T14:38:49.151Z,22.20
2019-03-19T14:41:54.804Z,22.20
2019-03-19T14:45:00.512Z,22.20
2019-03-19T14:48:06.456Z,22.20
2019-03-19T14:51:12.068Z,22.20
2019-03-19T14:54:17.828Z,22.20
2019-03-19T14:57:23.476Z,22.20
2019-03-19T15:00:29.235Z,22.20
2019-03-19T15:03:40.164Z,22.20
2019-03-19T15:06:45.825Z,22.20
2019-03-19T15:09:51.452Z,22.20
2019-03-19T15:12:57.227Z,22.20
2019-03-19T15:16:02.865Z,22.20
2019-03-19T15:19:08.655Z,22.20
2019-03-19T15:22:14.396Z,22.20
2019-03-19T15:25:20.134Z,22.20
2019-03-19T15:28:25.885Z,22.30
2019-03-19T15:31:31.659Z,22.30
2019-03-19T15:34:37.432Z,22.30
2019-03-19T15:37:43.400Z,22.20
2019-03-19T15:40:49.235Z,22.20
2019-03-19T15:43:54.911Z,22.20
2019-03-19T15:47:02.443Z,22.20
2019-03-19T15:50:11.023Z,22.30
2019-03-19T15:53:16.659Z,22.30
2019-03-19T15:56:22.294Z,22.30
2019-03-19T15:59:28.087Z,22.30
2019-03-19T16:02:33.721Z,22.30
2019-03-19T16:05:39.477Z,22.30
2019-03-19T16:08:46.123Z,22.30
2019-03-19T16:11:51.839Z,22.30
2019-03-19T16:14:58.595Z,22.30
2019-03-19T16:18:04.247Z,22.30
2019-03-19T16:21:09.892Z,22.30
2019-03-19T16:24:15.695Z,22.30
2019-03-19T16:27:21.391Z,22.30
2019-03-19T16:30:27.076Z,22.30
2019-03-19T16:33:32.579Z,22.30
2019-03-19T16:36:38.235Z,22.30
2019-03-19T16:39:44.044Z,22.30
2019-03-19T16:42:51.567Z,22.30
2019-03-19T16:45:57.278Z,22.30
2019-03-19T16:49:02.908Z,22.30
2019-03-19T16:52:08.615Z,22.30
2019-03-19T16:55:14.808Z,22.40
2019-03-19T16:58:20.507Z,22.30
2019-03-19T17:01:26.172Z,22.30
2019-03-19T17:04:31.792Z,22.30
2019-03-19T17:07:38.463Z,22.40
2019-03-19T17:10:45.267Z,22.30
2019-03-19T17:13:51.080Z,22.30
2019-03-19T17:16:56.891Z,22.30
2019-03-19T17:20:02.644Z,22.30
2019-03-19T17:23:08.470Z,22.40
2019-03-19T17:26:14.155Z,22.40
2019-03-19T17:29:19.867Z,22.30
2019-03-19T17:32:27.272Z,22.40
2019-03-19T17:35:32.945Z,22.40
2019-03-19T17:38:38.787Z,22.40
2019-03-19T17:41:44.575Z,22.40
2019-03-19T17:44:50.291Z,22.40
2019-03-19T17:47:55.983Z,22.40
2019-03-19T17:51:01.711Z,22.40
2019-03-19T17:54:07.435Z,22.40
2019-03-19T17:57:26.868Z,22.40
2019-03-19T18:00:34.008Z,22.40
2019-03-19T18:03:39.771Z,22.40
2019-03-19T18:06:45.429Z,22.40
2019-03-19T18:09:51.081Z,22.40
2019-03-19T18:12:57.941Z,22.40
2019-03-19T18:16:03.602Z,22.50
2019-03-19T18:19:09.267Z,22.40
2019-03-19T18:22:14.924Z,22.40
2019-03-19T18:25:20.755Z,22.40
2019-03-19T18:28:26.537Z,22.50
2019-03-19T18:31:32.186Z,22.50
2019-03-19T18:34:38.040Z,22.50
2019-03-19T18:37:43.892Z,22.50
2019-03-19T18:40:49.556Z,22.50
2019-03-19T18:43:55.305Z,22.50
2019-03-19T18:47:01.156Z,22.50
2019-03-19T18:50:08.328Z,22.50
2019-03-19T18:53:14.157Z,22.50
2019-03-19T18:56:19.867Z,22.60
2019-03-19T18:59:25.536Z,22.70
2019-03-19T19:02:31.148Z,22.80
2019-03-19T19:05:36.821Z,22.70
2019-03-19T19:08:42.681Z,22.80
2019-03-19T19:11:48.348Z,22.80
2019-03-19T19:14:53.989Z,22.90
2019-03-19T19:17:59.625Z,22.90
2019-03-19T19:21:05.603Z,23.00
2019-03-19T19:24:11.265Z,23.10
2019-03-19T19:27:17.040Z,23.10
2019-03-19T19:30:22.791Z,23.10
2019-03-19T19:33:28.415Z,23.20
2019-03-19T19:36:34.063Z,23.20
2019-03-19T19:39:39.700Z,23.20
2019-03-19T19:42:45.512Z,23.30
2019-03-19T19:45:51.228Z,23.40
2019-03-19T19:48:56.890Z,23.50
2019-03-19T19:52:02.553Z,23.70
2019-03-19T19:55:08.783Z,23.90
2019-03-19T19:58:14.472Z,23.90
2019-03-19T20:01:20.111Z,24.00
2019-03-19T20:04:26.664Z,23.90
2019-03-19T20:07:33.405Z,23.80
2019-03-19T20:10:40.820Z,23.80
2019-03-19T20:13:47.548Z,23.70
2019-03-19T20:16:54.891Z,23.60
2019-03-19T20:20:00.571Z,23.50
2019-03-19T20:23:06.497Z,23.40
2019-03-19T20:26:12.192Z,23.40
2019-03-19T20:29:18.091Z,23.40
2019-03-19T20:32:24.804Z,23.40
2019-03-19T20:35:30.616Z,23.40
2019-03-19T20:38:36.272Z,23.40
2019-03-19T20:41:41.976Z,23.50
2019-03-19T20:44:48.102Z,23.40
2019-03-19T20:47:54.128Z,23.40
2019-03-19T20:51:00.156Z,23.30
2019-03-19T20:54:05.951Z,23.30
2019-03-19T20:57:11.684Z,23.20
2019-03-19T21:00:17.758Z,23.10
2019-03-19T21:03:24.167Z,23.10
2019-03-19T21:06:29.920Z,23.10
2019-03-19T21:09:35.669Z,23.10
2019-03-19T21:12:41.513Z,23.00
2019-03-19T21:15:47.273Z,22.90
2019-03-19T21:18:52.917Z,22.90
2019-03-19T21:22:00.659Z,22.80
2019-03-19T21:25:06.707Z,22.80
2019-03-19T21:28:14.324Z,22.70
2019-03-19T21:31:20.024Z,22.70
2019-03-19T21:34:25.957Z,22.70
2019-03-19T21:37:31.850Z,22.60
2019-03-19T21:40:37.497Z,22.60
2019-03-19T21:43:45.161Z,22.50
2019-03-19T21:46:52.382Z,22.50
2019-03-19T21:49:59.245Z,22.50
2019-03-19T21:53:04.938Z,22.40
2019-03-19T21:56:10.671Z,22.40
2019-03-19T21:59:16.429Z,22.40
2019-03-19T22:02:22.192Z,22.30
2019-03-19T22:05:28.038Z,22.30
2019-03-19T22:08:33.803Z,22.30
2019-03-19T22:11:39.441Z,22.20
2019-03-19T22:14:45.199Z,22.20
2019-03-19T22:17:50.952Z,22.20
2019-03-19T22:20:56.953Z,22.20
2019-03-19T22:24:02.603Z,22.10
2019-03-19T22:27:08.320Z,22.10
2019-03-19T22:30:15.483Z,22.00
2019-03-19T22:33:23.193Z,22.00
2019-03-19T22:36:28.561Z,22.00
2019-03-19T22:39:34.345Z,21.90
2019-03-19T22:42:39.967Z,21.90
2019-03-19T22:45:45.621Z,21.90
2019-03-19T22:48:51.244Z,21.90
2019-03-19T22:51:59.691Z,21.80
2019-03-19T22:55:05.871Z,21.80
2019-03-19T22:58:11.504Z,21.80
2019-03-19T23:01:17.259Z,21.70
2019-03-19T23:06:31.503Z,21.70
2019-03-19T23:09:09.779Z,21.70
2019-03-19T23:12:15.475Z,21.60
2019-03-19T23:15:21.192Z,21.60
2019-03-19T23:18:26.797Z,21.60
2019-03-19T23:21:32.443Z,21.50
2019-03-19T23:24:38.193Z,21.40
2019-03-19T23:28:56.133Z,21.50
2019-03-19T23:32:01.910Z,21.40
2019-03-19T23:35:07.772Z,21.30
2019-03-19T23:38:13.525Z,21.30
2019-03-19T23:41:20.421Z,21.30
2019-03-19T23:44:26.239Z,21.20
2019-03-19T23:47:31.995Z,21.20
2019-03-19T23:50:37.762Z,21.20
2019-03-19T23:53:43.510Z,21.20
2019-03-19T23:56:49.267Z,21.10
2019-03-19T23:59:55.125Z,21.10
